METAR Data
IDs: Format: Raw Decoded Include TAF

Data at: 0403 UTC 26 May 2022

LSZR 260350Z AUTO VRB02KT 9999 SCT060 OVC080 13/10 Q1023